sensor_id;sensor_type;location;lat;lon;timestamp;pressure;altitude;pressure_sealevel;temperature;humidity
36234;BME280;43467;50.890;5.982;2023-03-05T00:00:12;100798.91;;;8.33;55.78
36234;BME280;43467;50.890;5.982;2023-03-05T00:02:38;100796.25;;;8.33;56.09
36234;BME280;43467;50.890;5.982;2023-03-05T00:05:03;100791.03;;;8.31;55.70
36234;BME280;43467;50.890;5.982;2023-03-05T00:07:29;100787.38;;;8.35;56.24
36234;BME280;43467;50.890;5.982;2023-03-05T00:09:58;100797.31;;;8.26;56.01
36234;BME280;43467;50.890;5.982;2023-03-05T00:12:24;100795.47;;;8.31;55.86
36234;BME280;43467;50.890;5.982;2023-03-05T00:14:49;100786.97;;;8.18;56.22
36234;BME280;43467;50.890;5.982;2023-03-05T00:17:15;100794.81;;;8.20;56.14
36234;BME280;43467;50.890;5.982;2023-03-05T00:19:40;100798.44;;;8.17;56.42
36234;BME280;43467;50.890;5.982;2023-03-05T00:22:06;100794.03;;;8.18;56.77
36234;BME280;43467;50.890;5.982;2023-03-05T00:24:31;100794.13;;;8.15;56.74
36234;BME280;43467;50.890;5.982;2023-03-05T00:26:57;100790.72;;;8.10;56.51
36234;BME280;43467;50.890;5.982;2023-03-05T00:29:22;100787.25;;;8.08;56.98
36234;BME280;43467;50.890;5.982;2023-03-05T00:31:47;100777.63;;;8.07;56.87
36234;BME280;43467;50.890;5.982;2023-03-05T00:34:15;100787.34;;;8.05;57.29
36234;BME280;43467;50.890;5.982;2023-03-05T00:36:42;100785.47;;;8.08;57.11
36234;BME280;43467;50.890;5.982;2023-03-05T00:39:09;100781.06;;;8.09;57.22
36234;BME280;43467;50.890;5.982;2023-03-05T00:41:35;100768.75;;;8.09;57.02
36234;BME280;43467;50.890;5.982;2023-03-05T00:44:01;100768.75;;;8.09;57.37
36234;BME280;43467;50.890;5.982;2023-03-05T00:46:26;100761.84;;;8.04;57.45
36234;BME280;43467;50.890;5.982;2023-03-05T00:48:53;100761.84;;;8.04;57.66
36234;BME280;43467;50.890;5.982;2023-03-05T00:51:19;100763.59;;;8.05;57.58
36234;BME280;43467;50.890;5.982;2023-03-05T00:53:45;100759.31;;;8.01;57.60
36234;BME280;43467;50.890;5.982;2023-03-05T00:56:11;100753.22;;;7.99;57.99
36234;BME280;43467;50.890;5.982;2023-03-05T00:58:36;100754.13;;;7.98;58.24
36234;BME280;43467;50.890;5.982;2023-03-05T01:01:03;100756.78;;;7.98;58.24
36234;BME280;43467;50.890;5.982;2023-03-05T01:03:30;100751.72;;;7.88;58.38
36234;BME280;43467;50.890;5.982;2023-03-05T01:05:56;100749.28;;;7.82;58.92
36234;BME280;43467;50.890;5.982;2023-03-05T01:08:22;100752.59;;;7.89;58.94
36234;BME280;43467;50.890;5.982;2023-03-05T01:10:47;100735.78;;;7.93;58.78
36234;BME280;43467;50.890;5.982;2023-03-05T01:13:13;100739.19;;;7.98;58.86
36234;BME280;43467;50.890;5.982;2023-03-05T01:15:38;100730.72;;;7.85;58.92
36234;BME280;43467;50.890;5.982;2023-03-05T01:18:04;100732.53;;;7.83;59.35
36234;BME280;43467;50.890;5.982;2023-03-05T01:20:30;100726.38;;;7.83;59.27
36234;BME280;43467;50.890;5.982;2023-03-05T01:22:57;100726.34;;;7.84;59.22
36234;BME280;43467;50.890;5.982;2023-03-05T01:25:27;100720.84;;;7.93;59.25
36234;BME280;43467;50.890;5.982;2023-03-05T01:27:53;100725.72;;;8.07;59.12
36234;BME280;43467;50.890;5.982;2023-03-05T01:30:18;100709.53;;;7.90;59.37
36234;BME280;43467;50.890;5.982;2023-03-05T01:32:44;100713.19;;;7.84;59.76
36234;BME280;43467;50.890;5.982;2023-03-05T01:35:15;100715.69;;;7.89;59.45
36234;BME280;43467;50.890;5.982;2023-03-05T01:37:41;100710.00;;;7.72;60.39
36234;BME280;43467;50.890;5.982;2023-03-05T01:40:07;100707.53;;;7.66;60.41
36234;BME280;43467;50.890;5.982;2023-03-05T01:42:33;100706.81;;;7.59;61.01
36234;BME280;43467;50.890;5.982;2023-03-05T01:47:29;100688.22;;;7.65;60.41
36234;BME280;43467;50.890;5.982;2023-03-05T01:49:54;100690.53;;;7.77;59.83
36234;BME280;43467;50.890;5.982;2023-03-05T01:52:22;100691.34;;;7.79;59.59
36234;BME280;43467;50.890;5.982;2023-03-05T01:54:55;100686.91;;;7.81;59.83
36234;BME280;43467;50.890;5.982;2023-03-05T01:57:43;100695.38;;;7.60;61.26
36234;BME280;43467;50.890;5.982;2023-03-05T02:00:16;100682.41;;;7.53;61.18
36234;BME280;43467;50.890;5.982;2023-03-05T02:02:43;100687.78;;;7.48;61.98
36234;BME280;43467;50.890;5.982;2023-03-05T02:05:12;100692.63;;;7.31;63.02
36234;BME280;43467;50.890;5.982;2023-03-05T02:07:39;100672.06;;;7.10;64.36
36234;BME280;43467;50.890;5.982;2023-03-05T02:10:28;100675.47;;;7.15;65.35
36234;BME280;43467;50.890;5.982;2023-03-05T02:12:58;100663.16;;;7.17;65.62
36234;BME280;43467;50.890;5.982;2023-03-05T02:15:24;100664.16;;;7.11;66.51
36234;BME280;43467;50.890;5.982;2023-03-05T02:17:50;100644.16;;;7.04;66.63
36234;BME280;43467;50.890;5.982;2023-03-05T02:20:19;100656.91;;;7.19;66.61
36234;BME280;43467;50.890;5.982;2023-03-05T02:22:44;100638.47;;;7.21;65.93
36234;BME280;43467;50.890;5.982;2023-03-05T02:25:16;100650.34;;;7.37;66.06
36234;BME280;43467;50.890;5.982;2023-03-05T02:27:48;100644.06;;;7.41;65.96
36234;BME280;43467;50.890;5.982;2023-03-05T02:30:15;100642.16;;;7.46;65.86
36234;BME280;43467;50.890;5.982;2023-03-05T02:32:41;100643.47;;;7.62;65.25
36234;BME280;43467;50.890;5.982;2023-03-05T02:35:06;100646.13;;;7.62;65.37
36234;BME280;43467;50.890;5.982;2023-03-05T02:37:33;100633.25;;;7.52;65.47
36234;BME280;43467;50.890;5.982;2023-03-05T02:39:58;100639.28;;;7.55;65.48
36234;BME280;43467;50.890;5.982;2023-03-05T02:42:23;100633.13;;;7.56;65.48
36234;BME280;43467;50.890;5.982;2023-03-05T02:44:49;100620.09;;;7.50;65.47
36234;BME280;43467;50.890;5.982;2023-03-05T02:47:14;100630.91;;;7.41;65.55
36234;BME280;43467;50.890;5.982;2023-03-05T02:49:39;100630.81;;;7.44;65.79
36234;BME280;43467;50.890;5.982;2023-03-05T02:52:05;100629.25;;;7.37;65.69
36234;BME280;43467;50.890;5.982;2023-03-05T02:54:30;100625.78;;;7.35;65.62
36234;BME280;43467;50.890;5.982;2023-03-05T02:56:56;100633.50;;;7.09;66.43
36234;BME280;43467;50.890;5.982;2023-03-05T02:59:21;100623.97;;;7.03;66.54
36234;BME280;43467;50.890;5.982;2023-03-05T03:01:47;100630.69;;;7.15;66.49
36234;BME280;43467;50.890;5.982;2023-03-05T03:04:12;100626.31;;;7.15;66.24
36234;BME280;43467;50.890;5.982;2023-03-05T03:06:37;100625.44;;;7.15;66.38
36234;BME280;43467;50.890;5.982;2023-03-05T03:09:03;100632.06;;;6.95;66.41
36234;BME280;43467;50.890;5.982;2023-03-05T03:11:28;100618.44;;;6.78;67.00
36234;BME280;43467;50.890;5.982;2023-03-05T03:13:53;100621.16;;;6.75;67.15
36234;BME280;43467;50.890;5.982;2023-03-05T03:16:19;100606.34;;;6.71;66.99
36234;BME280;43467;50.890;5.982;2023-03-05T03:18:44;100608.69;;;6.83;66.94
36234;BME280;43467;50.890;5.982;2023-03-05T03:21:23;100598.06;;;6.88;66.55
36234;BME280;43467;50.890;5.982;2023-03-05T03:23:49;100595.44;;;6.86;66.67
36234;BME280;43467;50.890;5.982;2023-03-05T03:26:14;100603.22;;;6.91;66.45
36234;BME280;43467;50.890;5.982;2023-03-05T03:28:40;100597.41;;;6.78;66.87
36234;BME280;43467;50.890;5.982;2023-03-05T03:31:05;100589.28;;;6.52;67.88
36234;BME280;43467;50.890;5.982;2023-03-05T03:33:31;100600.63;;;6.52;67.84
36234;BME280;43467;50.890;5.982;2023-03-05T03:35:56;100596.41;;;6.47;68.29
36234;BME280;43467;50.890;5.982;2023-03-05T03:38:22;100594.44;;;6.17;69.09
36234;BME280;43467;50.890;5.982;2023-03-05T03:40:47;100591.72;;;6.21;69.12
36234;BME280;43467;50.890;5.982;2023-03-05T03:43:12;100587.25;;;6.26;69.03
36234;BME280;43467;50.890;5.982;2023-03-05T03:45:42;100585.00;;;6.48;68.21
36234;BME280;43467;50.890;5.982;2023-03-05T03:48:08;100575.31;;;6.48;68.15
36234;BME280;43467;50.890;5.982;2023-03-05T03:50:38;100575.47;;;6.42;68.74
36234;BME280;43467;50.890;5.982;2023-03-05T03:53:03;100577.91;;;6.51;68.15
36234;BME280;43467;50.890;5.982;2023-03-05T03:55:28;100575.16;;;6.56;67.70
36234;BME280;43467;50.890;5.982;2023-03-05T03:57:54;100570.16;;;6.44;68.23
36234;BME280;43467;50.890;5.982;2023-03-05T04:00:19;100561.66;;;6.33;68.29
36234;BME280;43467;50.890;5.982;2023-03-05T04:02:45;100568.38;;;6.44;68.24
36234;BME280;43467;50.890;5.982;2023-03-05T04:05:10;100543.81;;;6.47;67.80
36234;BME280;43467;50.890;5.982;2023-03-05T04:07:36;100567.13;;;6.61;67.83
36234;BME280;43467;50.890;5.982;2023-03-05T04:10:01;100554.31;;;6.47;67.77
36234;BME280;43467;50.890;5.982;2023-03-05T04:12:27;100557.72;;;6.52;68.15
36234;BME280;43467;50.890;5.982;2023-03-05T04:14:52;100553.13;;;6.60;67.58
36234;BME280;43467;50.890;5.982;2023-03-05T04:17:18;100556.38;;;6.70;67.76
36234;BME280;43467;50.890;5.982;2023-03-05T04:19:43;100556.16;;;6.79;67.11
36234;BME280;43467;50.890;5.982;2023-03-05T04:22:13;100538.72;;;6.75;66.71
36234;BME280;43467;50.890;5.982;2023-03-05T04:24:39;100550.69;;;6.86;66.48
36234;BME280;43467;50.890;5.982;2023-03-05T04:27:05;100543.81;;;6.81;66.52
36234;BME280;43467;50.890;5.982;2023-03-05T04:29:32;100550.13;;;6.75;66.85
36234;BME280;43467;50.890;5.982;2023-03-05T04:31:57;100542.88;;;6.83;66.50
36234;BME280;43467;50.890;5.982;2023-03-05T04:34:23;100531.28;;;6.90;66.18
36234;BME280;43467;50.890;5.982;2023-03-05T04:36:48;100532.06;;;6.94;65.71
36234;BME280;43467;50.890;5.982;2023-03-05T04:39:13;100532.41;;;6.82;66.27
36234;BME280;43467;50.890;5.982;2023-03-05T04:41:39;100520.81;;;6.55;67.25
36234;BME280;43467;50.890;5.982;2023-03-05T04:44:04;100521.38;;;6.68;66.77
36234;BME280;43467;50.890;5.982;2023-03-05T04:46:30;100524.59;;;6.79;66.55
36234;BME280;43467;50.890;5.982;2023-03-05T04:48:56;100525.25;;;6.87;65.68
36234;BME280;43467;50.890;5.982;2023-03-05T04:51:22;100523.56;;;6.84;65.99
36234;BME280;43467;50.890;5.982;2023-03-05T04:53:47;100528.75;;;6.87;66.18
36234;BME280;43467;50.890;5.982;2023-03-05T04:56:13;100490.47;;;6.76;66.04
36234;BME280;43467;50.890;5.982;2023-03-05T04:58:38;100504.50;;;6.75;66.49
36234;BME280;43467;50.890;5.982;2023-03-05T05:01:05;100509.09;;;6.68;66.98
36234;BME280;43467;50.890;5.982;2023-03-05T05:03:31;100501.41;;;6.59;67.66
36234;BME280;43467;50.890;5.982;2023-03-05T05:05:58;100524.03;;;6.66;67.57
36234;BME280;43467;50.890;5.982;2023-03-05T05:08:24;100510.06;;;6.64;67.74
36234;BME280;43467;50.890;5.982;2023-03-05T05:11:02;100511.25;;;6.51;68.29
36234;BME280;43467;50.890;5.982;2023-03-05T05:13:29;100508.00;;;6.40;68.66
36234;BME280;43467;50.890;5.982;2023-03-05T05:15:56;100507.47;;;6.27;69.59
36234;BME280;43467;50.890;5.982;2023-03-05T05:18:21;100508.31;;;6.28;69.95
36234;BME280;43467;50.890;5.982;2023-03-05T05:20:47;100516.47;;;6.52;68.90
36234;BME280;43467;50.890;5.982;2023-03-05T05:23:13;100510.78;;;6.69;67.88
36234;BME280;43467;50.890;5.982;2023-03-05T05:25:39;100500.25;;;6.69;68.11
36234;BME280;43467;50.890;5.982;2023-03-05T05:28:05;100499.44;;;6.67;67.89
36234;BME280;43467;50.890;5.982;2023-03-05T05:30:30;100503.97;;;6.62;68.31
36234;BME280;43467;50.890;5.982;2023-03-05T05:32:56;100479.69;;;6.51;68.51
36234;BME280;43467;50.890;5.982;2023-03-05T05:35:21;100498.66;;;6.64;68.28
36234;BME280;43467;50.890;5.982;2023-03-05T05:37:47;100497.06;;;6.57;68.64
36234;BME280;43467;50.890;5.982;2023-03-05T05:40:12;100499.25;;;6.75;68.38
36234;BME280;43467;50.890;5.982;2023-03-05T05:42:37;100495.03;;;6.34;69.34
36234;BME280;43467;50.890;5.982;2023-03-05T05:45:03;100493.75;;;6.15;70.88
36234;BME280;43467;50.890;5.982;2023-03-05T05:47:29;100501.03;;;6.39;69.95
36234;BME280;43467;50.890;5.982;2023-03-05T05:49:55;100501.22;;;6.31;70.38
36234;BME280;43467;50.890;5.982;2023-03-05T05:52:21;100493.78;;;6.48;69.58
36234;BME280;43467;50.890;5.982;2023-03-05T05:54:46;100491.09;;;6.51;69.30
36234;BME280;43467;50.890;5.982;2023-03-05T05:57:12;100494.50;;;6.55;69.74
36234;BME280;43467;50.890;5.982;2023-03-05T05:59:37;100493.38;;;6.30;70.14
36234;BME280;43467;50.890;5.982;2023-03-05T06:02:04;100493.63;;;6.19;70.70
36234;BME280;43467;50.890;5.982;2023-03-05T06:04:29;100479.63;;;6.19;70.91
36234;BME280;43467;50.890;5.982;2023-03-05T06:06:55;100475.34;;;6.15;71.41
36234;BME280;43467;50.890;5.982;2023-03-05T06:09:20;100475.44;;;6.10;72.13
36234;BME280;43467;50.890;5.982;2023-03-05T06:11:45;100483.22;;;6.15;71.71
36234;BME280;43467;50.890;5.982;2023-03-05T06:14:12;100483.72;;;6.30;71.12
36234;BME280;43467;50.890;5.982;2023-03-05T06:16:37;100473.53;;;6.17;71.70
36234;BME280;43467;50.890;5.982;2023-03-05T06:19:03;100475.19;;;6.21;71.41
36234;BME280;43467;50.890;5.982;2023-03-05T06:21:29;100474.31;;;6.20;71.33
36234;BME280;43467;50.890;5.982;2023-03-05T06:23:55;100481.78;;;6.01;72.15
36234;BME280;43467;50.890;5.982;2023-03-05T06:26:23;100471.09;;;6.07;71.68
36234;BME280;43467;50.890;5.982;2023-03-05T06:28:49;100483.97;;;6.20;71.63
36234;BME280;43467;50.890;5.982;2023-03-05T06:31:18;100477.81;;;6.21;71.62
36234;BME280;43467;50.890;5.982;2023-03-05T06:33:46;100472.81;;;6.10;72.14
36234;BME280;43467;50.890;5.982;2023-03-05T06:36:13;100470.31;;;6.04;72.19
36234;BME280;43467;50.890;5.982;2023-03-05T06:38:40;100461.56;;;6.03;72.68
36234;BME280;43467;50.890;5.982;2023-03-05T06:41:08;100453.56;;;6.08;71.96
36234;BME280;43467;50.890;5.982;2023-03-05T06:43:36;100444.88;;;6.06;71.90
36234;BME280;43467;50.890;5.982;2023-03-05T06:46:14;100456.97;;;6.13;71.56
36234;BME280;43467;50.890;5.982;2023-03-05T06:48:40;100435.25;;;6.05;71.54
36234;BME280;43467;50.890;5.982;2023-03-05T06:51:13;100465.94;;;6.04;72.02
36234;BME280;43467;50.890;5.982;2023-03-05T06:53:38;100465.06;;;6.04;72.00
36234;BME280;43467;50.890;5.982;2023-03-05T06:56:04;100467.69;;;6.04;72.56
36234;BME280;43467;50.890;5.982;2023-03-05T06:58:29;100474.66;;;6.06;72.23
36234;BME280;43467;50.890;5.982;2023-03-05T07:00:55;100463.00;;;6.17;71.78
36234;BME280;43467;50.890;5.982;2023-03-05T07:03:20;100462.25;;;6.12;71.74
36234;BME280;43467;50.890;5.982;2023-03-05T07:05:45;100456.28;;;6.05;71.56
36234;BME280;43467;50.890;5.982;2023-03-05T07:08:11;100455.59;;;5.98;72.27
36234;BME280;43467;50.890;5.982;2023-03-05T07:10:41;100452.66;;;6.11;72.07
36234;BME280;43467;50.890;5.982;2023-03-05T07:13:08;100451.00;;;6.06;71.64
36234;BME280;43467;50.890;5.982;2023-03-05T07:15:36;100436.22;;;6.01;71.54
36234;BME280;43467;50.890;5.982;2023-03-05T07:18:02;100436.34;;;5.96;71.63
36234;BME280;43467;50.890;5.982;2023-03-05T07:20:27;100448.28;;;6.10;70.98
36234;BME280;43467;50.890;5.982;2023-03-05T07:22:53;100434.25;;;6.11;70.79
36234;BME280;43467;50.890;5.982;2023-03-05T07:25:19;100457.66;;;6.20;70.59
36234;BME280;43467;50.890;5.982;2023-03-05T07:27:46;100449.97;;;6.12;70.48
36234;BME280;43467;50.890;5.982;2023-03-05T07:30:12;100462.78;;;6.26;70.09
36234;BME280;43467;50.890;5.982;2023-03-05T07:32:38;100466.31;;;6.25;70.23
36234;BME280;43467;50.890;5.982;2023-03-05T07:35:04;100457.19;;;6.39;69.86
36234;BME280;43467;50.890;5.982;2023-03-05T07:37:29;100455.78;;;6.26;70.47
36234;BME280;43467;50.890;5.982;2023-03-05T07:39:55;100460.94;;;6.29;70.42
36234;BME280;43467;50.890;5.982;2023-03-05T07:42:20;100463.56;;;6.31;69.93
36234;BME280;43467;50.890;5.982;2023-03-05T07:44:45;100455.84;;;6.23;70.93
36234;BME280;43467;50.890;5.982;2023-03-05T07:47:11;100453.84;;;6.33;70.45
36234;BME280;43467;50.890;5.982;2023-03-05T07:49:36;100451.06;;;6.39;70.04
36234;BME280;43467;50.890;5.982;2023-03-05T07:52:05;100448.66;;;6.30;70.17
36234;BME280;43467;50.890;5.982;2023-03-05T07:54:30;100456.16;;;6.11;71.13
36234;BME280;43467;50.890;5.982;2023-03-05T07:56:55;100442.81;;;6.19;70.87
36234;BME280;43467;50.890;5.982;2023-03-05T07:59:21;100452.38;;;6.23;71.03
36234;BME280;43467;50.890;5.982;2023-03-05T08:01:46;100446.25;;;6.21;71.05
36234;BME280;43467;50.890;5.982;2023-03-05T08:04:12;100447.72;;;6.32;71.01
36234;BME280;43467;50.890;5.982;2023-03-05T08:06:39;100446.34;;;6.18;71.39
36234;BME280;43467;50.890;5.982;2023-03-05T08:09:05;100433.09;;;6.22;71.81
36234;BME280;43467;50.890;5.982;2023-03-05T08:11:30;100438.59;;;6.12;71.75
36234;BME280;43467;50.890;5.982;2023-03-05T08:13:56;100435.97;;;6.12;72.05
36234;BME280;43467;50.890;5.982;2023-03-05T08:16:24;100420.72;;;5.90;72.58
36234;BME280;43467;50.890;5.982;2023-03-05T08:18:53;100428.38;;;5.99;73.02
36234;BME280;43467;50.890;5.982;2023-03-05T08:21:23;100429.31;;;5.97;73.16
36234;BME280;43467;50.890;5.982;2023-03-05T08:23:51;100425.63;;;6.04;72.73
36234;BME280;43467;50.890;5.982;2023-03-05T08:26:20;100424.03;;;5.98;73.32
36234;BME280;43467;50.890;5.982;2023-03-05T08:28:46;100415.88;;;6.09;72.70
36234;BME280;43467;50.890;5.982;2023-03-05T08:31:12;100419.19;;;6.17;72.55
36234;BME280;43467;50.890;5.982;2023-03-05T08:33:38;100418.13;;;6.24;72.32
36234;BME280;43467;50.890;5.982;2023-03-05T08:36:04;100405.94;;;6.22;72.47
36234;BME280;43467;50.890;5.982;2023-03-05T08:38:30;100419.66;;;6.33;72.49
36234;BME280;43467;50.890;5.982;2023-03-05T08:40:55;100415.34;;;6.30;72.13
36234;BME280;43467;50.890;5.982;2023-03-05T08:43:21;100411.88;;;6.28;72.45
36234;BME280;43467;50.890;5.982;2023-03-05T08:45:46;100402.88;;;6.38;72.05
36234;BME280;43467;50.890;5.982;2023-03-05T08:48:14;100405.38;;;6.43;72.14
36234;BME280;43467;50.890;5.982;2023-03-05T08:50:39;100396.00;;;6.33;71.71
36234;BME280;43467;50.890;5.982;2023-03-05T08:53:04;100402.53;;;6.52;71.77
36234;BME280;43467;50.890;5.982;2023-03-05T08:55:30;100390.84;;;6.28;72.01
36234;BME280;43467;50.890;5.982;2023-03-05T08:57:55;100392.78;;;6.22;72.61
36234;BME280;43467;50.890;5.982;2023-03-05T09:00:21;100396.53;;;6.45;72.02
36234;BME280;43467;50.890;5.982;2023-03-05T09:02:47;100368.25;;;6.21;72.14
36234;BME280;43467;50.890;5.982;2023-03-05T09:05:12;100389.19;;;6.26;72.59
36234;BME280;43467;50.890;5.982;2023-03-05T09:07:37;100390.25;;;6.19;72.99
36234;BME280;43467;50.890;5.982;2023-03-05T09:10:04;100377.16;;;6.16;72.82
36234;BME280;43467;50.890;5.982;2023-03-05T09:12:30;100389.50;;;6.14;73.39
36234;BME280;43467;50.890;5.982;2023-03-05T09:14:55;100384.81;;;6.25;73.79
36234;BME280;43467;50.890;5.982;2023-03-05T09:17:22;100385.69;;;6.25;73.85
36234;BME280;43467;50.890;5.982;2023-03-05T09:19:47;100389.75;;;6.37;74.11
36234;BME280;43467;50.890;5.982;2023-03-05T09:22:12;100384.31;;;6.11;73.68
36234;BME280;43467;50.890;5.982;2023-03-05T09:24:38;100382.06;;;5.57;75.56
36234;BME280;43467;50.890;5.982;2023-03-05T09:27:03;100394.22;;;5.23;77.33
36234;BME280;43467;50.890;5.982;2023-03-05T09:29:29;100383.06;;;5.13;78.33
36234;BME280;43467;50.890;5.982;2023-03-05T09:31:55;100381.59;;;5.38;79.00
36234;BME280;43467;50.890;5.982;2023-03-05T09:34:21;100383.13;;;5.50;79.77
36234;BME280;43467;50.890;5.982;2023-03-05T09:36:47;100372.38;;;5.59;78.42
36234;BME280;43467;50.890;5.982;2023-03-05T09:39:12;100363.47;;;5.66;78.78
36234;BME280;43467;50.890;5.982;2023-03-05T09:52:48;100350.03;;;6.47;75.61
36234;BME280;43467;50.890;5.982;2023-03-05T09:55:36;100354.78;;;6.66;75.47
36234;BME280;43467;50.890;5.982;2023-03-05T09:58:14;100340.84;;;6.62;75.16
36234;BME280;43467;50.890;5.982;2023-03-05T10:00:46;100347.06;;;6.60;75.06
36234;BME280;43467;50.890;5.982;2023-03-05T10:03:56;100346.72;;;6.72;75.75
36234;BME280;43467;50.890;5.982;2023-03-05T10:06:28;100339.69;;;6.72;75.53
36234;BME280;43467;50.890;5.982;2023-03-05T10:09:03;100345.63;;;6.80;75.39
36234;BME280;43467;50.890;5.982;2023-03-05T10:13:59;100338.06;;;6.68;76.25
36234;BME280;43467;50.890;5.982;2023-03-05T10:22:16;100332.97;;;6.62;76.45
36234;BME280;43467;50.890;5.982;2023-03-05T10:28:33;100329.00;;;6.47;75.89
36234;BME280;43467;50.890;5.982;2023-03-05T10:42:14;100315.78;;;6.80;72.76
36234;BME280;43467;50.890;5.982;2023-03-05T10:44:58;100322.09;;;6.74;71.82
36234;BME280;43467;50.890;5.982;2023-03-05T10:47:33;100312.44;;;6.75;72.17
36234;BME280;43467;50.890;5.982;2023-03-05T10:50:20;100314.81;;;6.84;72.52
36234;BME280;43467;50.890;5.982;2023-03-05T10:52:52;100279.13;;;6.12;72.69
36234;BME280;43467;50.890;5.982;2023-03-05T10:55:21;100314.00;;;6.51;73.65
36234;BME280;43467;50.890;5.982;2023-03-05T10:57:47;100310.13;;;6.64;73.46
36234;BME280;43467;50.890;5.982;2023-03-05T11:00:17;100307.47;;;6.33;73.22
36234;BME280;43467;50.890;5.982;2023-03-05T11:03:02;100300.78;;;6.52;72.18
36234;BME280;43467;50.890;5.982;2023-03-05T11:07:59;100303.03;;;6.66;71.45
36234;BME280;43467;50.890;5.982;2023-03-05T11:10:24;100275.69;;;6.41;70.84
36234;BME280;43467;50.890;5.982;2023-03-05T11:12:50;100284.72;;;6.63;70.86
36234;BME280;43467;50.890;5.982;2023-03-05T11:17:45;100293.16;;;6.74;69.81
36234;BME280;43467;50.890;5.982;2023-03-05T11:28:33;100275.41;;;6.81;69.77
36234;BME280;43467;50.890;5.982;2023-03-05T11:31:06;100267.59;;;6.78;69.27
36234;BME280;43467;50.890;5.982;2023-03-05T11:33:34;100270.69;;;6.92;69.34
36234;BME280;43467;50.890;5.982;2023-03-05T11:36:21;100268.13;;;6.89;68.47
36234;BME280;43467;50.890;5.982;2023-03-05T11:38:54;100257.91;;;7.08;67.88
36234;BME280;43467;50.890;5.982;2023-03-05T11:41:48;100259.72;;;7.06;66.39
36234;BME280;43467;50.890;5.982;2023-03-05T11:44:59;100266.47;;;6.86;66.43
36234;BME280;43467;50.890;5.982;2023-03-05T11:49:44;100245.53;;;7.11;66.68
36234;BME280;43467;50.890;5.982;2023-03-05T11:52:29;100243.31;;;6.97;66.06
36234;BME280;43467;50.890;5.982;2023-03-05T11:57:33;100233.09;;;7.42;66.16
36234;BME280;43467;50.890;5.982;2023-03-05T12:00:00;100232.13;;;7.45;65.92
36234;BME280;43467;50.890;5.982;2023-03-05T12:02:32;100223.25;;;7.47;65.67
36234;BME280;43467;50.890;5.982;2023-03-05T12:04:57;100218.41;;;7.35;65.81
36234;BME280;43467;50.890;5.982;2023-03-05T12:07:35;100216.19;;;7.22;66.74
36234;BME280;43467;50.890;5.982;2023-03-05T12:10:03;100211.53;;;7.30;66.79
36234;BME280;43467;50.890;5.982;2023-03-05T12:12:52;100210.78;;;7.26;67.22
36234;BME280;43467;50.890;5.982;2023-03-05T12:20:59;100192.28;;;7.54;67.33
36234;BME280;43467;50.890;5.982;2023-03-05T12:23:27;100188.22;;;7.45;66.40
36234;BME280;43467;50.890;5.982;2023-03-05T12:25:55;100161.91;;;7.18;66.60
36234;BME280;43467;50.890;5.982;2023-03-05T12:33:42;100176.06;;;7.15;67.13
36234;BME280;43467;50.890;5.982;2023-03-05T12:38:53;100161.47;;;7.31;67.42
36234;BME280;43467;50.890;5.982;2023-03-05T12:46:34;100152.84;;;7.53;66.88
36234;BME280;43467;50.890;5.982;2023-03-05T12:51:49;100130.25;;;7.21;66.82
36234;BME280;43467;50.890;5.982;2023-03-05T12:57:00;100127.47;;;7.25;67.53
36234;BME280;43467;50.890;5.982;2023-03-05T12:59:50;100122.13;;;7.27;65.36
36234;BME280;43467;50.890;5.982;2023-03-05T13:02:42;100122.78;;;7.07;65.54
36234;BME280;43467;50.890;5.982;2023-03-05T13:05:30;100109.19;;;7.21;65.09
36234;BME280;43467;50.890;5.982;2023-03-05T13:08:27;100107.00;;;7.33;64.85
36234;BME280;43467;50.890;5.982;2023-03-05T13:13:23;100103.16;;;7.42;64.81
36234;BME280;43467;50.890;5.982;2023-03-05T13:15:50;100097.22;;;7.37;64.52
36234;BME280;43467;50.890;5.982;2023-03-05T13:18:22;100098.81;;;7.41;64.56
36234;BME280;43467;50.890;5.982;2023-03-05T13:20:48;100098.44;;;7.52;63.76
36234;BME280;43467;50.890;5.982;2023-03-05T13:23:25;100094.41;;;7.41;63.90
36234;BME280;43467;50.890;5.982;2023-03-05T13:26:07;100093.28;;;7.24;63.51
36234;BME280;43467;50.890;5.982;2023-03-05T13:28:34;100086.88;;;7.31;64.42
36234;BME280;43467;50.890;5.982;2023-03-05T13:31:11;100086.13;;;7.27;65.04
36234;BME280;43467;50.890;5.982;2023-03-05T13:33:37;100080.59;;;7.35;64.86
36234;BME280;43467;50.890;5.982;2023-03-05T13:36:04;100070.00;;;7.36;64.68
36234;BME280;43467;50.890;5.982;2023-03-05T13:38:43;100071.09;;;7.54;64.97
36234;BME280;43467;50.890;5.982;2023-03-05T13:41:19;100073.22;;;7.69;64.94
36234;BME280;43467;50.890;5.982;2023-03-05T13:46:22;100057.25;;;7.49;65.84
36234;BME280;43467;50.890;5.982;2023-03-05T13:48:48;100065.81;;;7.31;67.24
36234;BME280;43467;50.890;5.982;2023-03-05T13:51:13;100060.31;;;7.12;69.23
36234;BME280;43467;50.890;5.982;2023-03-05T13:53:39;100060.25;;;7.14;70.41
36234;BME280;43467;50.890;5.982;2023-03-05T13:56:06;100056.00;;;7.10;69.42
36234;BME280;43467;50.890;5.982;2023-03-05T13:58:51;100049.72;;;7.14;71.46
36234;BME280;43467;50.890;5.982;2023-03-05T14:01:27;100033.56;;;7.24;71.65
36234;BME280;43467;50.890;5.982;2023-03-05T14:03:56;100033.34;;;7.30;70.43
36234;BME280;43467;50.890;5.982;2023-03-05T14:06:24;100026.75;;;7.42;71.26
36234;BME280;43467;50.890;5.982;2023-03-05T14:08:56;100030.22;;;7.44;71.41
36234;BME280;43467;50.890;5.982;2023-03-05T14:11:26;100023.03;;;7.49;71.97
36234;BME280;43467;50.890;5.982;2023-03-05T14:14:01;100028.03;;;7.55;72.55
36234;BME280;43467;50.890;5.982;2023-03-05T14:16:29;100017.50;;;7.55;72.03
36234;BME280;43467;50.890;5.982;2023-03-05T14:19:00;100014.50;;;7.66;72.09
36234;BME280;43467;50.890;5.982;2023-03-05T14:21:43;100009.72;;;7.75;72.30
36234;BME280;43467;50.890;5.982;2023-03-05T14:24:19;100005.97;;;7.82;71.37
36234;BME280;43467;50.890;5.982;2023-03-05T14:26:56;100007.56;;;7.86;71.93
36234;BME280;43467;50.890;5.982;2023-03-05T14:29:25;100008.47;;;7.85;70.66